Airfield :







YOU CAN JOIN US ON...

 
LOGIN :

Register | Disclaimer

   EN    FR    IT 

 









Legend :    VFR   Marginal VFR   IFR   Intensive IFR   Very Intensive IFR
Visi :
Ceiling :
>= 8 km
>= 3000ft
5 to 8 km
1000 to 3000 ft
1500m to 5 km
500 to 1000 ft
800 to 1500m
200 to 500 ft
< 800m
< 200 ft
Symbols :   Thunderstorms  Fog  Heavy snow  Heavy precipitations  Wind > 20 kt







- Airport Elevation : 626 ft


KCAR - Caribou Municipal

CURRENT METAR :
  • 221154Z AUTO 08004KT 10SM BKN040 OVC047 01/M05 A2974 RMK AO2 PRESFR SLP080 60002 70002 T00061050 10028 21006 58021

EXPIRED METARs :
  • 221054Z AUTO 12005KT 10SM FEW047 BKN085 00/M04 A2977 RMK AO2 SLP091 T00001039
  • 220954Z AUTO 14006KT 10SM OVC033 00/M03 A2979 RMK AO2 SNE0858 SLP096 P0000 T00001028
  • 220924Z AUTO 14005KT 10SM OVC030 00/M02 A2979 RMK AO2 SNE0858 P0000 T00001022

TAF KCAR
Valid from the 22 at 12:00 until the 23 at 12:00 UTC


221120Z 2212/2312 12004KT P6SM VCSH OVC040
FM221500 05008KT 2SM -SNRA OVC025
FM221700 04010G18KT 2SM -RA OVC008
FM230100 02010G18KT 2SM -RASN OVC008
FM230600 36012G20KT 2SM -SN OVC008
KZBW FIR / North America



MET'MAP, your aeronautical weather chart ! - Copyright ORBIFLY December 2007 - Disclaimer

ORBIFLY MET'MAP TEAM :

Programming & Development : Alexandra Zaïnal
Concept & Development : Baudouin d'Aumeries
Co-Development & Prog : Marc-Olivier Méhu
Technical & hardware support : Manuel Goepfert

Contact : metmap@orbifly.com




SOURCES & CREDITS :

   NOAA